sensor_id;sensor_type;location;lat;lon;timestamp;P1;durP1;ratioP1;P2;durP2;ratioP2
59189;SDS011;50749;51.636;4.948;2023-04-23T00:00:15;5.65;;;3.97;;
59189;SDS011;50749;51.636;4.948;2023-04-23T00:03:04;5.75;;;3.85;;
59189;SDS011;50749;51.636;4.948;2023-04-23T00:05:34;5.85;;;3.60;;
59189;SDS011;50749;51.636;4.948;2023-04-23T00:08:02;6.78;;;3.90;;
59189;SDS011;50749;51.636;4.948;2023-04-23T00:10:28;6.18;;;3.80;;
59189;SDS011;50749;51.636;4.948;2023-04-23T00:12:55;6.25;;;3.67;;
59189;SDS011;50749;51.636;4.948;2023-04-23T00:15:21;5.70;;;4.13;;
59189;SDS011;50749;51.636;4.948;2023-04-23T00:17:47;5.93;;;4.15;;
59189;SDS011;50749;51.636;4.948;2023-04-23T00:20:13;6.18;;;3.83;;
59189;SDS011;50749;51.636;4.948;2023-04-23T00:22:41;7.22;;;3.90;;
59189;SDS011;50749;51.636;4.948;2023-04-23T00:25:07;5.78;;;4.00;;
59189;SDS011;50749;51.636;4.948;2023-04-23T00:27:34;4.57;;;3.42;;
59189;SDS011;50749;51.636;4.948;2023-04-23T00:30:00;4.95;;;3.15;;
59189;SDS011;50749;51.636;4.948;2023-04-23T00:32:27;5.82;;;3.95;;
59189;SDS011;50749;51.636;4.948;2023-04-23T00:34:53;4.60;;;3.25;;
59189;SDS011;50749;51.636;4.948;2023-04-23T00:37:21;4.20;;;3.38;;
59189;SDS011;50749;51.636;4.948;2023-04-23T00:39:47;5.03;;;3.25;;
59189;SDS011;50749;51.636;4.948;2023-04-23T00:42:13;5.22;;;3.60;;
59189;SDS011;50749;51.636;4.948;2023-04-23T00:44:41;5.28;;;3.38;;
59189;SDS011;50749;51.636;4.948;2023-04-23T00:47:08;6.40;;;3.72;;
59189;SDS011;50749;51.636;4.948;2023-04-23T00:49:34;5.22;;;3.67;;
59189;SDS011;50749;51.636;4.948;2023-04-23T00:52:02;6.15;;;3.30;;
59189;SDS011;50749;51.636;4.948;2023-04-23T00:54:28;5.55;;;3.60;;
59189;SDS011;50749;51.636;4.948;2023-04-23T00:56:54;6.53;;;4.13;;
59189;SDS011;50749;51.636;4.948;2023-04-23T00:59:22;5.30;;;3.75;;
59189;SDS011;50749;51.636;4.948;2023-04-23T01:01:50;6.82;;;3.42;;
59189;SDS011;50749;51.636;4.948;2023-04-23T01:04:17;4.13;;;2.95;;
59189;SDS011;50749;51.636;4.948;2023-04-23T01:06:44;5.63;;;3.50;;
59189;SDS011;50749;51.636;4.948;2023-04-23T01:09:13;5.50;;;3.30;;
59189;SDS011;50749;51.636;4.948;2023-04-23T01:11:41;4.88;;;3.22;;
59189;SDS011;50749;51.636;4.948;2023-04-23T01:14:08;3.97;;;3.00;;
59189;SDS011;50749;51.636;4.948;2023-04-23T01:16:35;5.30;;;3.25;;
59189;SDS011;50749;51.636;4.948;2023-04-23T01:19:06;5.45;;;3.45;;
59189;SDS011;50749;51.636;4.948;2023-04-23T01:21:33;4.93;;;3.20;;
59189;SDS011;50749;51.636;4.948;2023-04-23T01:24:00;5.30;;;3.50;;
59189;SDS011;50749;51.636;4.948;2023-04-23T01:26:27;3.72;;;2.70;;
59189;SDS011;50749;51.636;4.948;2023-04-23T01:28:52;4.75;;;3.25;;
59189;SDS011;50749;51.636;4.948;2023-04-23T01:31:19;4.55;;;3.25;;
59189;SDS011;50749;51.636;4.948;2023-04-23T01:33:45;4.90;;;2.90;;
59189;SDS011;50749;51.636;4.948;2023-04-23T01:36:12;4.50;;;3.22;;
59189;SDS011;50749;51.636;4.948;2023-04-23T01:38:38;4.90;;;3.28;;
59189;SDS011;50749;51.636;4.948;2023-04-23T01:41:04;3.65;;;2.80;;
59189;SDS011;50749;51.636;4.948;2023-04-23T01:43:30;5.25;;;3.05;;
59189;SDS011;50749;51.636;4.948;2023-04-23T01:45:56;4.32;;;3.00;;
59189;SDS011;50749;51.636;4.948;2023-04-23T01:48:23;4.25;;;2.97;;
59189;SDS011;50749;51.636;4.948;2023-04-23T01:50:50;4.80;;;3.00;;
59189;SDS011;50749;51.636;4.948;2023-04-23T01:53:16;3.42;;;2.50;;
59189;SDS011;50749;51.636;4.948;2023-04-23T01:55:44;4.35;;;3.03;;
59189;SDS011;50749;51.636;4.948;2023-04-23T01:58:11;3.72;;;2.90;;
59189;SDS011;50749;51.636;4.948;2023-04-23T02:00:38;4.35;;;3.08;;
59189;SDS011;50749;51.636;4.948;2023-04-23T02:03:03;4.50;;;2.83;;
59189;SDS011;50749;51.636;4.948;2023-04-23T02:05:30;5.68;;;3.22;;
59189;SDS011;50749;51.636;4.948;2023-04-23T02:07:59;4.88;;;3.05;;
59189;SDS011;50749;51.636;4.948;2023-04-23T02:10:25;4.03;;;2.60;;
59189;SDS011;50749;51.636;4.948;2023-04-23T02:12:51;4.05;;;3.03;;
59189;SDS011;50749;51.636;4.948;2023-04-23T02:15:17;4.82;;;3.05;;
59189;SDS011;50749;51.636;4.948;2023-04-23T02:17:44;3.42;;;2.58;;
59189;SDS011;50749;51.636;4.948;2023-04-23T02:20:10;4.07;;;2.42;;
59189;SDS011;50749;51.636;4.948;2023-04-23T02:22:37;3.65;;;2.63;;
59189;SDS011;50749;51.636;4.948;2023-04-23T02:25:05;5.03;;;3.13;;
59189;SDS011;50749;51.636;4.948;2023-04-23T02:27:32;4.75;;;2.60;;
59189;SDS011;50749;51.636;4.948;2023-04-23T02:29:59;4.22;;;2.75;;
59189;SDS011;50749;51.636;4.948;2023-04-23T02:32:25;3.78;;;2.33;;
59189;SDS011;50749;51.636;4.948;2023-04-23T02:34:52;3.67;;;2.50;;
59189;SDS011;50749;51.636;4.948;2023-04-23T02:37:18;4.13;;;2.70;;
59189;SDS011;50749;51.636;4.948;2023-04-23T02:39:44;4.32;;;2.90;;
59189;SDS011;50749;51.636;4.948;2023-04-23T02:42:10;4.47;;;2.92;;
59189;SDS011;50749;51.636;4.948;2023-04-23T02:44:36;3.63;;;2.40;;
59189;SDS011;50749;51.636;4.948;2023-04-23T02:47:02;5.35;;;2.95;;
59189;SDS011;50749;51.636;4.948;2023-04-23T02:49:28;3.70;;;2.53;;
59189;SDS011;50749;51.636;4.948;2023-04-23T02:51:54;3.80;;;2.67;;
59189;SDS011;50749;51.636;4.948;2023-04-23T02:54:20;3.40;;;2.40;;
59189;SDS011;50749;51.636;4.948;2023-04-23T02:56:45;4.25;;;3.00;;
59189;SDS011;50749;51.636;4.948;2023-04-23T02:59:11;4.07;;;2.65;;
59189;SDS011;50749;51.636;4.948;2023-04-23T03:01:37;3.65;;;2.67;;
59189;SDS011;50749;51.636;4.948;2023-04-23T03:04:03;4.63;;;3.10;;
59189;SDS011;50749;51.636;4.948;2023-04-23T03:06:29;3.60;;;2.25;;
59189;SDS011;50749;51.636;4.948;2023-04-23T03:08:56;4.43;;;2.53;;
59189;SDS011;50749;51.636;4.948;2023-04-23T03:11:22;3.30;;;2.67;;
59189;SDS011;50749;51.636;4.948;2023-04-23T03:13:48;3.47;;;2.40;;
59189;SDS011;50749;51.636;4.948;2023-04-23T03:16:14;3.85;;;2.63;;
59189;SDS011;50749;51.636;4.948;2023-04-23T03:18:40;3.33;;;2.50;;
59189;SDS011;50749;51.636;4.948;2023-04-23T03:21:05;3.83;;;2.45;;
59189;SDS011;50749;51.636;4.948;2023-04-23T03:23:31;3.67;;;2.65;;
59189;SDS011;50749;51.636;4.948;2023-04-23T03:25:57;3.55;;;2.38;;
59189;SDS011;50749;51.636;4.948;2023-04-23T03:28:23;3.80;;;2.88;;
59189;SDS011;50749;51.636;4.948;2023-04-23T03:30:49;4.28;;;2.50;;
59189;SDS011;50749;51.636;4.948;2023-04-23T03:33:15;3.28;;;2.50;;
59189;SDS011;50749;51.636;4.948;2023-04-23T03:35:40;2.88;;;2.40;;
59189;SDS011;50749;51.636;4.948;2023-04-23T03:38:06;4.25;;;2.28;;
59189;SDS011;50749;51.636;4.948;2023-04-23T03:40:32;3.33;;;2.17;;
59189;SDS011;50749;51.636;4.948;2023-04-23T03:42:58;4.10;;;2.38;;
59189;SDS011;50749;51.636;4.948;2023-04-23T03:45:24;3.80;;;2.45;;
59189;SDS011;50749;51.636;4.948;2023-04-23T03:47:50;3.70;;;2.30;;
59189;SDS011;50749;51.636;4.948;2023-04-23T03:50:16;4.43;;;2.03;;
59189;SDS011;50749;51.636;4.948;2023-04-23T03:52:42;4.10;;;2.38;;
59189;SDS011;50749;51.636;4.948;2023-04-23T03:55:08;3.45;;;2.13;;
59189;SDS011;50749;51.636;4.948;2023-04-23T03:57:35;3.13;;;2.35;;
59189;SDS011;50749;51.636;4.948;2023-04-23T04:00:01;3.25;;;2.42;;
59189;SDS011;50749;51.636;4.948;2023-04-23T04:02:29;2.80;;;2.13;;
59189;SDS011;50749;51.636;4.948;2023-04-23T04:04:55;3.20;;;2.20;;
59189;SDS011;50749;51.636;4.948;2023-04-23T04:07:21;2.97;;;2.10;;
59189;SDS011;50749;51.636;4.948;2023-04-23T04:09:46;3.38;;;2.40;;
59189;SDS011;50749;51.636;4.948;2023-04-23T04:12:14;3.78;;;2.65;;
59189;SDS011;50749;51.636;4.948;2023-04-23T04:14:43;2.90;;;2.33;;
59189;SDS011;50749;51.636;4.948;2023-04-23T04:17:09;3.17;;;2.40;;
59189;SDS011;50749;51.636;4.948;2023-04-23T04:19:34;3.22;;;2.17;;
59189;SDS011;50749;51.636;4.948;2023-04-23T04:22:00;3.35;;;2.50;;
59189;SDS011;50749;51.636;4.948;2023-04-23T04:24:28;2.80;;;2.10;;
59189;SDS011;50749;51.636;4.948;2023-04-23T04:26:57;3.17;;;2.20;;
59189;SDS011;50749;51.636;4.948;2023-04-23T04:29:24;4.18;;;2.63;;
59189;SDS011;50749;51.636;4.948;2023-04-23T04:31:52;8.50;;;2.20;;
59189;SDS011;50749;51.636;4.948;2023-04-23T04:34:18;2.63;;;1.70;;
59189;SDS011;50749;51.636;4.948;2023-04-23T04:36:44;3.85;;;2.40;;
59189;SDS011;50749;51.636;4.948;2023-04-23T04:39:11;3.00;;;2.50;;
59189;SDS011;50749;51.636;4.948;2023-04-23T04:41:39;3.38;;;2.25;;
59189;SDS011;50749;51.636;4.948;2023-04-23T04:44:06;3.13;;;2.20;;
59189;SDS011;50749;51.636;4.948;2023-04-23T04:46:35;3.00;;;1.95;;
59189;SDS011;50749;51.636;4.948;2023-04-23T04:49:08;3.55;;;2.38;;
59189;SDS011;50749;51.636;4.948;2023-04-23T04:51:38;3.33;;;2.33;;
59189;SDS011;50749;51.636;4.948;2023-04-23T04:54:05;3.35;;;2.08;;
59189;SDS011;50749;51.636;4.948;2023-04-23T04:56:32;2.75;;;2.00;;
59189;SDS011;50749;51.636;4.948;2023-04-23T04:58:59;3.47;;;2.20;;
59189;SDS011;50749;51.636;4.948;2023-04-23T05:01:27;3.15;;;2.17;;
59189;SDS011;50749;51.636;4.948;2023-04-23T05:03:56;3.17;;;2.13;;
59189;SDS011;50749;51.636;4.948;2023-04-23T05:06:22;4.63;;;2.22;;
59189;SDS011;50749;51.636;4.948;2023-04-23T05:08:48;5.32;;;3.30;;
59189;SDS011;50749;51.636;4.948;2023-04-23T05:11:17;7.45;;;2.92;;
59189;SDS011;50749;51.636;4.948;2023-04-23T05:13:44;10.20;;;2.78;;
59189;SDS011;50749;51.636;4.948;2023-04-23T05:16:11;6.78;;;3.13;;
59189;SDS011;50749;51.636;4.948;2023-04-23T05:18:37;5.60;;;2.50;;
59189;SDS011;50749;51.636;4.948;2023-04-23T05:21:03;7.38;;;3.05;;
59189;SDS011;50749;51.636;4.948;2023-04-23T05:23:30;9.05;;;2.55;;
59189;SDS011;50749;51.636;4.948;2023-04-23T05:25:57;8.80;;;2.90;;
59189;SDS011;50749;51.636;4.948;2023-04-23T05:28:23;3.72;;;2.03;;
59189;SDS011;50749;51.636;4.948;2023-04-23T05:30:50;5.43;;;2.00;;
59189;SDS011;50749;51.636;4.948;2023-04-23T05:33:16;5.07;;;2.50;;
59189;SDS011;50749;51.636;4.948;2023-04-23T05:35:42;8.23;;;3.05;;
59189;SDS011;50749;51.636;4.948;2023-04-23T05:38:08;5.43;;;2.70;;
59189;SDS011;50749;51.636;4.948;2023-04-23T05:40:35;6.95;;;2.38;;
59189;SDS011;50749;51.636;4.948;2023-04-23T05:43:00;4.95;;;2.55;;
59189;SDS011;50749;51.636;4.948;2023-04-23T05:45:27;8.77;;;2.85;;
59189;SDS011;50749;51.636;4.948;2023-04-23T05:47:53;3.70;;;2.10;;
59189;SDS011;50749;51.636;4.948;2023-04-23T05:50:19;4.97;;;2.30;;
59189;SDS011;50749;51.636;4.948;2023-04-23T05:52:45;6.07;;;2.47;;
59189;SDS011;50749;51.636;4.948;2023-04-23T05:55:12;4.43;;;2.15;;
59189;SDS011;50749;51.636;4.948;2023-04-23T05:57:42;6.18;;;2.10;;
59189;SDS011;50749;51.636;4.948;2023-04-23T06:00:08;4.07;;;1.80;;
59189;SDS011;50749;51.636;4.948;2023-04-23T06:02:36;5.45;;;2.03;;
59189;SDS011;50749;51.636;4.948;2023-04-23T06:05:02;3.10;;;1.98;;
59189;SDS011;50749;51.636;4.948;2023-04-23T06:07:30;2.88;;;2.35;;
59189;SDS011;50749;51.636;4.948;2023-04-23T06:09:56;3.00;;;1.75;;
59189;SDS011;50749;51.636;4.948;2023-04-23T06:12:22;2.60;;;1.67;;
59189;SDS011;50749;51.636;4.948;2023-04-23T06:14:48;4.90;;;1.83;;
59189;SDS011;50749;51.636;4.948;2023-04-23T06:17:13;3.00;;;1.83;;
59189;SDS011;50749;51.636;4.948;2023-04-23T06:19:40;9.23;;;2.55;;
59189;SDS011;50749;51.636;4.948;2023-04-23T06:22:06;6.95;;;3.53;;
59189;SDS011;50749;51.636;4.948;2023-04-23T06:24:32;8.98;;;3.60;;
59189;SDS011;50749;51.636;4.948;2023-04-23T06:26:58;8.23;;;3.13;;
59189;SDS011;50749;51.636;4.948;2023-04-23T06:29:24;9.77;;;2.92;;
59189;SDS011;50749;51.636;4.948;2023-04-23T06:31:49;6.20;;;2.65;;
59189;SDS011;50749;51.636;4.948;2023-04-23T06:34:15;6.93;;;2.30;;
59189;SDS011;50749;51.636;4.948;2023-04-23T06:36:41;9.10;;;3.75;;
59189;SDS011;50749;51.636;4.948;2023-04-23T06:39:08;9.50;;;3.88;;
59189;SDS011;50749;51.636;4.948;2023-04-23T06:41:34;4.25;;;3.05;;
59189;SDS011;50749;51.636;4.948;2023-04-23T06:44:01;6.38;;;3.05;;
59189;SDS011;50749;51.636;4.948;2023-04-23T06:46:26;4.13;;;2.58;;
59189;SDS011;50749;51.636;4.948;2023-04-23T06:48:52;3.47;;;2.65;;
59189;SDS011;50749;51.636;4.948;2023-04-23T06:51:18;7.65;;;2.72;;
59189;SDS011;50749;51.636;4.948;2023-04-23T06:53:45;6.15;;;2.30;;
59189;SDS011;50749;51.636;4.948;2023-04-23T06:56:11;6.40;;;2.40;;
59189;SDS011;50749;51.636;4.948;2023-04-23T06:58:37;5.47;;;2.50;;
59189;SDS011;50749;51.636;4.948;2023-04-23T07:01:03;4.53;;;2.15;;
59189;SDS011;50749;51.636;4.948;2023-04-23T07:03:30;4.40;;;2.30;;
59189;SDS011;50749;51.636;4.948;2023-04-23T07:05:56;5.13;;;2.60;;
59189;SDS011;50749;51.636;4.948;2023-04-23T07:08:22;3.70;;;1.80;;
59189;SDS011;50749;51.636;4.948;2023-04-23T07:10:47;6.40;;;2.30;;
59189;SDS011;50749;51.636;4.948;2023-04-23T07:13:14;3.75;;;1.92;;
59189;SDS011;50749;51.636;4.948;2023-04-23T07:15:40;10.15;;;2.90;;
59189;SDS011;50749;51.636;4.948;2023-04-23T07:18:07;4.20;;;2.20;;
59189;SDS011;50749;51.636;4.948;2023-04-23T07:20:33;4.63;;;2.00;;
59189;SDS011;50749;51.636;4.948;2023-04-23T07:22:59;2.88;;;2.15;;
59189;SDS011;50749;51.636;4.948;2023-04-23T07:25:25;3.53;;;2.17;;
59189;SDS011;50749;51.636;4.948;2023-04-23T07:27:52;2.92;;;1.67;;
59189;SDS011;50749;51.636;4.948;2023-04-23T07:30:21;4.18;;;2.63;;
59189;SDS011;50749;51.636;4.948;2023-04-23T07:32:48;3.58;;;2.10;;
59189;SDS011;50749;51.636;4.948;2023-04-23T07:35:14;2.97;;;1.92;;
59189;SDS011;50749;51.636;4.948;2023-04-23T07:37:40;22.63;;;2.17;;
59189;SDS011;50749;51.636;4.948;2023-04-23T07:40:06;6.18;;;2.08;;
59189;SDS011;50749;51.636;4.948;2023-04-23T07:42:33;2.15;;;1.48;;
59189;SDS011;50749;51.636;4.948;2023-04-23T07:44:59;3.00;;;1.70;;
59189;SDS011;50749;51.636;4.948;2023-04-23T07:47:25;2.95;;;1.65;;
59189;SDS011;50749;51.636;4.948;2023-04-23T07:49:51;2.92;;;1.98;;
59189;SDS011;50749;51.636;4.948;2023-04-23T07:52:17;5.30;;;2.10;;
59189;SDS011;50749;51.636;4.948;2023-04-23T07:54:43;4.63;;;1.90;;
59189;SDS011;50749;51.636;4.948;2023-04-23T07:57:09;4.28;;;1.90;;
59189;SDS011;50749;51.636;4.948;2023-04-23T07:59:36;2.83;;;1.60;;
59189;SDS011;50749;51.636;4.948;2023-04-23T08:02:05;4.43;;;1.88;;
59189;SDS011;50749;51.636;4.948;2023-04-23T08:04:31;3.15;;;1.42;;
59189;SDS011;50749;51.636;4.948;2023-04-23T08:06:57;2.35;;;1.55;;
59189;SDS011;50749;51.636;4.948;2023-04-23T08:09:23;4.38;;;1.80;;
59189;SDS011;50749;51.636;4.948;2023-04-23T08:11:50;3.28;;;2.13;;
59189;SDS011;50749;51.636;4.948;2023-04-23T08:14:16;5.00;;;1.65;;
59189;SDS011;50749;51.636;4.948;2023-04-23T08:16:43;2.50;;;1.50;;
59189;SDS011;50749;51.636;4.948;2023-04-23T08:19:08;3.00;;;1.55;;
59189;SDS011;50749;51.636;4.948;2023-04-23T08:21:35;3.42;;;1.70;;
59189;SDS011;50749;51.636;4.948;2023-04-23T08:24:00;3.75;;;1.40;;
59189;SDS011;50749;51.636;4.948;2023-04-23T08:26:27;4.63;;;1.75;;
59189;SDS011;50749;51.636;4.948;2023-04-23T08:28:53;2.63;;;1.52;;
59189;SDS011;50749;51.636;4.948;2023-04-23T08:31:19;4.32;;;1.80;;
59189;SDS011;50749;51.636;4.948;2023-04-23T08:33:44;6.50;;;1.48;;
59189;SDS011;50749;51.636;4.948;2023-04-23T08:36:10;4.00;;;1.67;;
59189;SDS011;50749;51.636;4.948;2023-04-23T08:38:36;3.58;;;1.88;;
59189;SDS011;50749;51.636;4.948;2023-04-23T08:41:03;3.45;;;1.50;;
59189;SDS011;50749;51.636;4.948;2023-04-23T08:43:31;3.40;;;1.63;;
59189;SDS011;50749;51.636;4.948;2023-04-23T08:46:02;2.85;;;1.42;;
59189;SDS011;50749;51.636;4.948;2023-04-23T08:48:28;4.72;;;1.30;;
59189;SDS011;50749;51.636;4.948;2023-04-23T08:50:56;2.00;;;1.20;;
59189;SDS011;50749;51.636;4.948;2023-04-23T08:53:25;2.13;;;1.50;;
59189;SDS011;50749;51.636;4.948;2023-04-23T08:55:57;2.80;;;2.08;;
59189;SDS011;50749;51.636;4.948;2023-04-23T08:58:23;4.10;;;1.58;;
59189;SDS011;50749;51.636;4.948;2023-04-23T09:00:52;2.83;;;1.58;;
59189;SDS011;50749;51.636;4.948;2023-04-23T09:03:19;2.05;;;1.20;;
59189;SDS011;50749;51.636;4.948;2023-04-23T09:05:47;3.28;;;1.48;;
59189;SDS011;50749;51.636;4.948;2023-04-23T09:08:12;2.63;;;1.30;;
59189;SDS011;50749;51.636;4.948;2023-04-23T09:10:39;5.00;;;1.90;;
59189;SDS011;50749;51.636;4.948;2023-04-23T09:13:07;3.22;;;1.30;;
59189;SDS011;50749;51.636;4.948;2023-04-23T09:15:33;4.15;;;1.50;;
59189;SDS011;50749;51.636;4.948;2023-04-23T09:18:04;5.35;;;1.30;;
59189;SDS011;50749;51.636;4.948;2023-04-23T09:20:30;3.47;;;1.30;;
59189;SDS011;50749;51.636;4.948;2023-04-23T09:22:56;4.80;;;1.20;;
59189;SDS011;50749;51.636;4.948;2023-04-23T09:25:22;2.78;;;1.30;;
59189;SDS011;50749;51.636;4.948;2023-04-23T09:27:49;2.28;;;1.35;;
59189;SDS011;50749;51.636;4.948;2023-04-23T09:30:17;2.53;;;1.20;;
59189;SDS011;50749;51.636;4.948;2023-04-23T09:32:44;3.72;;;1.30;;
59189;SDS011;50749;51.636;4.948;2023-04-23T09:35:12;5.85;;;1.42;;
59189;SDS011;50749;51.636;4.948;2023-04-23T09:37:40;3.53;;;1.20;;
59189;SDS011;50749;51.636;4.948;2023-04-23T09:40:14;3.57;;;1.23;;
59189;SDS011;50749;51.636;4.948;2023-04-23T09:42:41;2.40;;;1.20;;
59189;SDS011;50749;51.636;4.948;2023-04-23T09:45:13;2.00;;;1.05;;
59189;SDS011;50749;51.636;4.948;2023-04-23T09:50:17;2.83;;;0.90;;
59189;SDS011;50749;51.636;4.948;2023-04-23T09:52:43;3.45;;;1.35;;
59189;SDS011;50749;51.636;4.948;2023-04-23T09:55:09;2.97;;;1.23;;
59189;SDS011;50749;51.636;4.948;2023-04-23T09:57:35;4.25;;;1.50;;
59189;SDS011;50749;51.636;4.948;2023-04-23T10:00:12;7.05;;;1.40;;
59189;SDS011;50749;51.636;4.948;2023-04-23T10:02:47;2.53;;;1.17;;
59189;SDS011;50749;51.636;4.948;2023-04-23T10:05:18;3.20;;;1.10;;
59189;SDS011;50749;51.636;4.948;2023-04-23T10:07:45;5.88;;;1.30;;
59189;SDS011;50749;51.636;4.948;2023-04-23T10:10:13;2.55;;;1.20;;
59189;SDS011;50749;51.636;4.948;2023-04-23T10:12:41;2.75;;;1.10;;
59189;SDS011;50749;51.636;4.948;2023-04-23T10:15:08;4.50;;;1.33;;
59189;SDS011;50749;51.636;4.948;2023-04-23T10:17:35;3.35;;;1.20;;
59189;SDS011;50749;51.636;4.948;2023-04-23T10:20:01;1.85;;;0.95;;
59189;SDS011;50749;51.636;4.948;2023-04-23T10:22:28;8.45;;;1.50;;
59189;SDS011;50749;51.636;4.948;2023-04-23T10:24:56;6.10;;;1.83;;
59189;SDS011;50749;51.636;4.948;2023-04-23T10:27:29;2.05;;;1.10;;
59189;SDS011;50749;51.636;4.948;2023-04-23T10:29:56;6.97;;;1.23;;
59189;SDS011;50749;51.636;4.948;2023-04-23T10:32:22;5.60;;;1.23;;
59189;SDS011;50749;51.636;4.948;2023-04-23T10:34:50;3.60;;;1.27;;
59189;SDS011;50749;51.636;4.948;2023-04-23T10:37:16;5.25;;;1.42;;
59189;SDS011;50749;51.636;4.948;2023-04-23T10:39:44;4.00;;;1.67;;
59189;SDS011;50749;51.636;4.948;2023-04-23T10:42:14;5.55;;;1.02;;
59189;SDS011;50749;51.636;4.948;2023-04-23T10:44:41;5.68;;;1.50;;
59189;SDS011;50749;51.636;4.948;2023-04-23T10:47:14;5.30;;;2.05;;
59189;SDS011;50749;51.636;4.948;2023-04-23T10:49:41;5.38;;;1.45;;
59189;SDS011;50749;51.636;4.948;2023-04-23T10:52:10;3.38;;;1.20;;
59189;SDS011;50749;51.636;4.948;2023-04-23T10:54:43;4.30;;;1.00;;
59189;SDS011;50749;51.636;4.948;2023-04-23T10:57:12;2.63;;;1.00;;
59189;SDS011;50749;51.636;4.948;2023-04-23T10:59:40;7.07;;;1.25;;
59189;SDS011;50749;51.636;4.948;2023-04-23T11:02:16;4.78;;;1.08;;
59189;SDS011;50749;51.636;4.948;2023-04-23T11:04:55;3.03;;;1.10;;
59189;SDS011;50749;51.636;4.948;2023-04-23T11:07:30;2.60;;;1.10;;
59189;SDS011;50749;51.636;4.948;2023-04-23T11:10:09;4.78;;;1.00;;
59189;SDS011;50749;51.636;4.948;2023-04-23T11:12:39;3.35;;;1.10;;
59189;SDS011;50749;51.636;4.948;2023-04-23T11:15:12;1.85;;;0.98;;
59189;SDS011;50749;51.636;4.948;2023-04-23T11:20:10;1.60;;;0.98;;
59189;SDS011;50749;51.636;4.948;2023-04-23T11:22:39;2.45;;;1.08;;
59189;SDS011;50749;51.636;4.948;2023-04-23T11:25:11;2.03;;;0.98;;
59189;SDS011;50749;51.636;4.948;2023-04-23T11:27:57;3.30;;;0.95;;
59189;SDS011;50749;51.636;4.948;2023-04-23T11:30:24;3.28;;;0.95;;
59189;SDS011;50749;51.636;4.948;2023-04-23T11:32:52;3.95;;;1.05;;
59189;SDS011;50749;51.636;4.948;2023-04-23T11:35:22;1.42;;;0.90;;
59189;SDS011;50749;51.636;4.948;2023-04-23T11:37:52;2.65;;;0.80;;
59189;SDS011;50749;51.636;4.948;2023-04-23T11:40:20;4.57;;;1.20;;
59189;SDS011;50749;51.636;4.948;2023-04-23T11:42:46;4.90;;;1.23;;
59189;SDS011;50749;51.636;4.948;2023-04-23T11:45:23;5.05;;;1.10;;
59189;SDS011;50749;51.636;4.948;2023-04-23T11:47:50;2.38;;;1.00;;
59189;SDS011;50749;51.636;4.948;2023-04-23T11:50:27;1.95;;;0.85;;
59189;SDS011;50749;51.636;4.948;2023-04-23T11:52:55;4.10;;;0.80;;
59189;SDS011;50749;51.636;4.948;2023-04-23T11:55:21;4.70;;;1.10;;
59189;SDS011;50749;51.636;4.948;2023-04-23T11:57:48;1.23;;;0.73;;
59189;SDS011;50749;51.636;4.948;2023-04-23T12:00:25;4.28;;;0.93;;
59189;SDS011;50749;51.636;4.948;2023-04-23T12:02:55;4.32;;;0.90;;
59189;SDS011;50749;51.636;4.948;2023-04-23T12:05:29;5.88;;;0.93;;
59189;SDS011;50749;51.636;4.948;2023-04-23T12:10:40;2.22;;;1.00;;
59189;SDS011;50749;51.636;4.948;2023-04-23T12:13:12;3.88;;;0.90;;
59189;SDS011;50749;51.636;4.948;2023-04-23T12:18:10;3.38;;;0.82;;
59189;SDS011;50749;51.636;4.948;2023-04-23T12:20:36;4.40;;;0.95;;
59189;SDS011;50749;51.636;4.948;2023-04-23T12:23:04;10.48;;;1.05;;
59189;SDS011;50749;51.636;4.948;2023-04-23T12:25:34;5.55;;;1.20;;
59189;SDS011;50749;51.636;4.948;2023-04-23T12:28:01;21.88;;;2.83;;
59189;SDS011;50749;51.636;4.948;2023-04-23T12:30:29;2.88;;;1.35;;
59189;SDS011;50749;51.636;4.948;2023-04-23T12:33:00;3.88;;;1.17;;
59189;SDS011;50749;51.636;4.948;2023-04-23T12:35:36;6.35;;;1.27;;
59189;SDS011;50749;51.636;4.948;2023-04-23T12:38:22;5.47;;;0.98;;
59189;SDS011;50749;51.636;4.948;2023-04-23T12:40:53;4.28;;;0.98;;
59189;SDS011;50749;51.636;4.948;2023-04-23T12:43:19;3.97;;;1.10;;
59189;SDS011;50749;51.636;4.948;2023-04-23T12:45:46;2.78;;;0.93;;
59189;SDS011;50749;51.636;4.948;2023-04-23T12:48:11;4.22;;;1.05;;
59189;SDS011;50749;51.636;4.948;2023-04-23T12:50:38;4.80;;;1.67;;
59189;SDS011;50749;51.636;4.948;2023-04-23T12:53:04;2.90;;;0.80;;
59189;SDS011;50749;51.636;4.948;2023-04-23T12:55:31;6.72;;;1.10;;
59189;SDS011;50749;51.636;4.948;2023-04-23T12:57:57;3.67;;;1.00;;
59189;SDS011;50749;51.636;4.948;2023-04-23T13:00:24;3.40;;;1.27;;
59189;SDS011;50749;51.636;4.948;2023-04-23T13:02:50;2.78;;;0.80;;
59189;SDS011;50749;51.636;4.948;2023-04-23T13:05:18;5.00;;;0.90;;
59189;SDS011;50749;51.636;4.948;2023-04-23T13:07:44;3.40;;;1.13;;
59189;SDS011;50749;51.636;4.948;2023-04-23T13:10:10;6.22;;;1.05;;
59189;SDS011;50749;51.636;4.948;2023-04-23T13:12:36;1.95;;;1.00;;
59189;SDS011;50749;51.636;4.948;2023-04-23T13:15:02;2.30;;;0.68;;
59189;SDS011;50749;51.636;4.948;2023-04-23T13:17:29;2.13;;;0.70;;
59189;SDS011;50749;51.636;4.948;2023-04-23T13:19:55;2.70;;;0.95;;
59189;SDS011;50749;51.636;4.948;2023-04-23T13:22:21;2.15;;;0.80;;
59189;SDS011;50749;51.636;4.948;2023-04-23T13:24:53;2.78;;;1.48;;
59189;SDS011;50749;51.636;4.948;2023-04-23T13:27:26;0.75;;;0.50;;
59189;SDS011;50749;51.636;4.948;2023-04-23T13:29:54;2.15;;;0.77;;
59189;SDS011;50749;51.636;4.948;2023-04-23T13:32:20;3.38;;;1.45;;
59189;SDS011;50749;51.636;4.948;2023-04-23T13:34:49;2.15;;;0.90;;
59189;SDS011;50749;51.636;4.948;2023-04-23T13:37:15;2.25;;;0.80;;
59189;SDS011;50749;51.636;4.948;2023-04-23T13:39:41;3.70;;;1.00;;
59189;SDS011;50749;51.636;4.948;2023-04-23T13:42:07;2.97;;;0.90;;
59189;SDS011;50749;51.636;4.948;2023-04-23T13:44:33;3.42;;;0.98;;
59189;SDS011;50749;51.636;4.948;2023-04-23T13:46:59;2.25;;;0.90;;
59189;SDS011;50749;51.636;4.948;2023-04-23T13:49:25;2.25;;;1.02;;
59189;SDS011;50749;51.636;4.948;2023-04-23T13:51:52;2.33;;;0.88;;
59189;SDS011;50749;51.636;4.948;2023-04-23T13:54:23;5.35;;;0.90;;
59189;SDS011;50749;51.636;4.948;2023-04-23T13:56:52;2.15;;;0.60;;
59189;SDS011;50749;51.636;4.948;2023-04-23T13:59:20;2.65;;;0.90;;
59189;SDS011;50749;51.636;4.948;2023-04-23T14:01:46;1.35;;;0.50;;
59189;SDS011;50749;51.636;4.948;2023-04-23T14:04:14;1.45;;;0.57;;
59189;SDS011;50749;51.636;4.948;2023-04-23T14:06:41;1.92;;;0.60;;
59189;SDS011;50749;51.636;4.948;2023-04-23T14:09:07;1.85;;;0.95;;
59189;SDS011;50749;51.636;4.948;2023-04-23T14:11:32;2.63;;;1.38;;
59189;SDS011;50749;51.636;4.948;2023-04-23T14:13:59;1.10;;;0.57;;
59189;SDS011;50749;51.636;4.948;2023-04-23T14:16:25;0.88;;;0.55;;
59189;SDS011;50749;51.636;4.948;2023-04-23T14:18:51;2.63;;;0.88;;
59189;SDS011;50749;51.636;4.948;2023-04-23T14:21:17;2.45;;;0.60;;
59189;SDS011;50749;51.636;4.948;2023-04-23T14:23:44;2.45;;;0.80;;
59189;SDS011;50749;51.636;4.948;2023-04-23T14:26:21;2.10;;;0.98;;
59189;SDS011;50749;51.636;4.948;2023-04-23T14:28:51;1.63;;;0.70;;
59189;SDS011;50749;51.636;4.948;2023-04-23T14:31:17;3.08;;;1.10;;
59189;SDS011;50749;51.636;4.948;2023-04-23T14:33:43;2.38;;;0.70;;
59189;SDS011;50749;51.636;4.948;2023-04-23T14:36:08;1.70;;;0.60;;
59189;SDS011;50749;51.636;4.948;2023-04-23T14:38:34;1.95;;;0.63;;
59189;SDS011;50749;51.636;4.948;2023-04-23T14:41:00;0.95;;;0.63;;
59189;SDS011;50749;51.636;4.948;2023-04-23T14:43:26;1.60;;;0.70;;
59189;SDS011;50749;51.636;4.948;2023-04-23T14:45:52;1.10;;;0.70;;
59189;SDS011;50749;51.636;4.948;2023-04-23T14:48:18;2.20;;;0.70;;
59189;SDS011;50749;51.636;4.948;2023-04-23T14:50:44;2.53;;;0.70;;
59189;SDS011;50749;51.636;4.948;2023-04-23T14:53:10;0.82;;;0.47;;
59189;SDS011;50749;51.636;4.948;2023-04-23T14:55:36;1.33;;;0.60;;
59189;SDS011;50749;51.636;4.948;2023-04-23T14:58:04;1.98;;;0.98;;